createdAt,value
2019-03-31T00:01:48.922Z,32.20
2019-03-31T00:04:17.149Z,33.10
2019-03-31T00:06:45.377Z,33.67
2019-03-31T00:09:13.616Z,32.10
2019-03-31T00:11:41.959Z,33.23
2019-03-31T00:14:10.821Z,33.40
2019-03-31T00:16:38.981Z,33.17
2019-03-31T00:19:07.966Z,34.13
2019-03-31T00:21:36.101Z,35.37
2019-03-31T00:24:04.311Z,37.63
2019-03-31T00:26:32.473Z,37.05
2019-03-31T00:29:00.666Z,39.33
2019-03-31T00:31:29.571Z,37.73
2019-03-31T00:33:57.684Z,40.17
2019-03-31T00:36:25.839Z,39.53
2019-03-31T00:38:53.979Z,38.85
2019-03-31T00:41:22.114Z,38.03
2019-03-31T00:43:50.278Z,37.83
2019-03-31T00:46:18.409Z,40.23
2019-03-31T00:48:47.407Z,39.60
2019-03-31T00:51:15.526Z,42.33
2019-03-31T00:53:43.741Z,42.40
2019-03-31T00:56:11.934Z,42.03
2019-03-31T00:58:40.086Z,41.73
2019-03-31T01:01:10.830Z,42.77
2019-03-31T01:03:58.329Z,43.58
2019-03-31T01:06:26.670Z,46.87
2019-03-31T01:08:58.482Z,41.13
2019-03-31T01:11:27.292Z,42.38
2019-03-31T01:13:55.489Z,40.93
2019-03-31T01:16:23.687Z,46.17
2019-03-31T01:18:51.818Z,48.63
2019-03-31T01:21:20.007Z,44.87
2019-03-31T01:23:48.133Z,41.95
2019-03-31T01:26:18.112Z,43.50
2019-03-31T01:28:46.485Z,41.73
2019-03-31T01:31:14.610Z,43.23
2019-03-31T01:33:42.994Z,46.37
2019-03-31T01:36:11.666Z,43.85
2019-03-31T01:38:39.892Z,43.63
2019-03-31T01:41:08.591Z,44.40
2019-03-31T01:43:36.794Z,43.33
2019-03-31T01:46:06.567Z,43.53
2019-03-31T01:48:34.696Z,44.00
2019-03-31T01:51:02.817Z,43.60
2019-03-31T01:53:30.946Z,44.67
2019-03-31T01:55:59.170Z,45.33
2019-03-31T01:58:27.312Z,45.00
2019-03-31T02:00:57.162Z,45.80
2019-03-31T02:03:25.282Z,46.13
2019-03-31T02:05:53.407Z,44.97
2019-03-31T02:08:21.542Z,44.33
2019-03-31T02:10:49.693Z,44.97
2019-03-31T02:13:17.861Z,45.30
2019-03-31T02:15:46.785Z,47.63
2019-03-31T02:18:14.980Z,45.80
2019-03-31T02:20:43.103Z,47.07
2019-03-31T02:23:11.249Z,47.20
2019-03-31T02:25:39.401Z,45.33
2019-03-31T02:28:07.550Z,44.83
2019-03-31T02:30:35.746Z,46.03
2019-03-31T02:33:04.020Z,44.87
2019-03-31T02:35:32.160Z,50.20
2019-03-31T02:38:00.351Z,47.23
2019-03-31T02:40:28.573Z,45.87
2019-03-31T02:42:56.969Z,47.57
2019-03-31T02:45:25.916Z,49.30
2019-03-31T02:47:54.110Z,45.90
2019-03-31T02:50:29.482Z,49.20
2019-03-31T02:52:57.608Z,47.97
2019-03-31T02:55:25.864Z,46.03
2019-03-31T02:57:54.066Z,45.67
2019-03-31T03:00:22.289Z,47.80
2019-03-31T03:02:51.103Z,48.23
2019-03-31T03:05:20.505Z,49.73
2019-03-31T03:07:49.281Z,51.03
2019-03-31T03:10:18.651Z,48.23
2019-03-31T03:12:48.150Z,48.03
2019-03-31T03:15:20.923Z,49.13
2019-03-31T03:17:49.172Z,49.33
2019-03-31T03:20:17.323Z,47.43
2019-03-31T03:22:45.444Z,49.93
2019-03-31T03:25:13.638Z,48.23
2019-03-31T03:27:41.770Z,49.53
2019-03-31T03:30:09.964Z,49.77
2019-03-31T03:33:10.881Z,49.10
2019-03-31T03:35:10.715Z,48.15
2019-03-31T03:37:38.849Z,49.10
2019-03-31T03:40:07.052Z,50.77
2019-03-31T03:42:35.178Z,49.20
2019-03-31T03:45:04.189Z,50.07
2019-03-31T03:47:32.457Z,47.23
2019-03-31T03:50:00.698Z,50.23
2019-03-31T03:52:28.890Z,50.27
2019-03-31T03:54:57.029Z,49.53
2019-03-31T03:57:25.248Z,50.67
2019-03-31T03:59:53.386Z,51.53
2019-03-31T04:02:21.507Z,50.27
2019-03-31T04:04:49.787Z,53.23
2019-03-31T04:07:18.042Z,48.50
2019-03-31T04:09:46.920Z,49.73
2019-03-31T04:12:15.044Z,50.63
2019-03-31T04:14:43.183Z,51.70
2019-03-31T04:17:17.170Z,51.47
2019-03-31T04:19:45.297Z,55.57
2019-03-31T04:22:13.438Z,51.37
2019-03-31T04:24:41.635Z,50.50
2019-03-31T04:27:10.499Z,49.73
2019-03-31T04:29:38.744Z,51.87
2019-03-31T04:32:06.871Z,52.00
2019-03-31T04:34:35.002Z,54.27
2019-03-31T04:37:03.168Z,51.33
2019-03-31T04:39:31.402Z,49.60
2019-03-31T04:41:59.562Z,54.03
2019-03-31T04:44:27.764Z,53.07
2019-03-31T04:46:55.974Z,54.83
2019-03-31T04:49:24.112Z,52.43
2019-03-31T04:51:52.378Z,54.50
2019-03-31T04:54:20.498Z,54.83
2019-03-31T04:56:48.695Z,52.23
2019-03-31T04:59:16.818Z,51.33
2019-03-31T05:01:44.970Z,52.87
2019-03-31T05:04:13.089Z,50.52
2019-03-31T05:06:41.227Z,52.87
2019-03-31T05:09:09.347Z,52.87
2019-03-31T05:11:37.501Z,50.23
2019-03-31T05:14:08.187Z,48.17
2019-03-31T05:16:36.346Z,47.93
2019-03-31T05:19:04.543Z,48.80
2019-03-31T05:21:32.701Z,45.50
2019-03-31T05:24:00.819Z,42.87
2019-03-31T05:26:28.948Z,43.37
2019-03-31T05:28:57.077Z,40.50
2019-03-31T05:31:25.984Z,53.10
2019-03-31T05:33:54.196Z,41.30
2019-03-31T05:36:22.435Z,40.50
2019-03-31T05:38:50.587Z,39.40
2019-03-31T05:41:18.810Z,35.70
2019-03-31T05:43:46.925Z,37.63
2019-03-31T05:46:15.061Z,37.47
2019-03-31T05:48:43.226Z,35.03
2019-03-31T05:51:11.360Z,34.10
2019-03-31T05:53:39.603Z,35.43
2019-03-31T05:56:07.731Z,36.73
2019-03-31T05:58:35.859Z,36.57
2019-03-31T06:01:03.970Z,36.70
2019-03-31T06:03:32.098Z,35.13
2019-03-31T06:06:00.215Z,33.93
2019-03-31T06:08:28.352Z,35.40
2019-03-31T06:10:56.526Z,34.30
2019-03-31T06:13:25.491Z,34.47
2019-03-31T06:15:53.610Z,31.13
2019-03-31T06:18:21.771Z,29.60
2019-03-31T06:20:49.880Z,28.77
2019-03-31T06:23:18.034Z,32.80
2019-03-31T06:25:46.231Z,29.95
2019-03-31T06:28:14.376Z,30.80
2019-03-31T06:30:43.225Z,29.67
2019-03-31T06:33:11.338Z,31.30
2019-03-31T06:35:39.515Z,37.03
2019-03-31T06:38:07.664Z,37.85
2019-03-31T06:40:35.828Z,37.80
2019-03-31T06:43:04.763Z,35.43
2019-03-31T06:45:32.922Z,32.83
2019-03-31T06:48:01.024Z,36.50
2019-03-31T06:50:29.243Z,36.53
2019-03-31T06:52:57.370Z,34.33
2019-03-31T06:55:25.495Z,31.80
2019-03-31T06:57:53.650Z,33.47
2019-03-31T07:00:22.600Z,32.07
2019-03-31T07:02:50.830Z,31.45
2019-03-31T07:05:18.965Z,31.73
2019-03-31T07:07:47.079Z,32.53
2019-03-31T07:10:15.277Z,31.30
2019-03-31T07:12:43.552Z,29.93
2019-03-31T07:15:11.990Z,29.47
2019-03-31T07:17:40.180Z,26.70
2019-03-31T07:20:09.019Z,28.73
2019-03-31T07:22:37.546Z,26.12
2019-03-31T07:25:09.098Z,28.23
2019-03-31T07:27:37.725Z,27.60
2019-03-31T07:30:10.126Z,28.53
2019-03-31T07:32:38.353Z,29.32
2019-03-31T07:35:18.197Z,28.43
2019-03-31T07:37:47.276Z,28.02
2019-03-31T07:40:11.155Z,30.37
2019-03-31T07:42:39.858Z,29.93
2019-03-31T07:45:08.243Z,31.10
2019-03-31T07:47:36.689Z,29.93
2019-03-31T07:50:08.523Z,30.12
2019-03-31T07:52:36.794Z,28.77
2019-03-31T07:55:05.665Z,29.18
2019-03-31T07:57:34.173Z,28.30
2019-03-31T08:00:02.457Z,32.63
2019-03-31T08:02:30.660Z,29.67
2019-03-31T08:04:59.614Z,29.73
2019-03-31T08:07:27.771Z,30.87
2019-03-31T08:09:55.948Z,28.67
2019-03-31T08:12:24.077Z,29.20
2019-03-31T08:14:52.203Z,28.75
2019-03-31T08:17:20.398Z,28.80
2019-03-31T08:19:48.517Z,29.90
2019-03-31T08:22:16.976Z,27.97
2019-03-31T08:24:45.177Z,31.25
2019-03-31T08:27:13.916Z,28.07
2019-03-31T08:29:42.331Z,26.97
2019-03-31T08:32:10.718Z,27.03
2019-03-31T08:34:38.935Z,27.07
2019-03-31T08:37:07.238Z,25.12
2019-03-31T08:39:35.410Z,24.77
2019-03-31T08:42:03.678Z,25.70
2019-03-31T08:44:31.923Z,26.00
2019-03-31T08:47:19.385Z,24.03
2019-03-31T08:49:47.560Z,24.70
2019-03-31T08:52:15.731Z,23.57
2019-03-31T08:54:43.879Z,23.80
2019-03-31T08:57:12.481Z,25.48
2019-03-31T08:59:40.776Z,23.13
2019-03-31T09:02:25.591Z,23.37
2019-03-31T09:05:00.978Z,24.70
2019-03-31T09:07:29.848Z,22.22
2019-03-31T09:09:58.041Z,23.02
2019-03-31T09:12:26.306Z,21.40
2019-03-31T09:14:54.504Z,20.88
2019-03-31T09:17:22.728Z,21.07
2019-03-31T09:19:50.867Z,21.20
2019-03-31T09:22:19.018Z,20.27
2019-03-31T09:24:47.141Z,20.10
2019-03-31T09:27:15.280Z,20.60
2019-03-31T09:29:43.705Z,21.07
2019-03-31T09:32:11.932Z,21.80
2019-03-31T09:34:40.134Z,19.97
2019-03-31T09:37:08.331Z,18.20
2019-03-31T09:39:36.479Z,18.27
2019-03-31T09:42:04.739Z,19.10
2019-03-31T09:44:32.942Z,18.00
2019-03-31T09:47:01.218Z,17.70
2019-03-31T09:49:29.512Z,19.27
2019-03-31T09:51:57.678Z,19.33
2019-03-31T09:54:25.796Z,19.87
2019-03-31T09:56:53.934Z,20.23
2019-03-31T09:59:22.124Z,18.77
2019-03-31T10:01:50.319Z,19.43
2019-03-31T10:04:18.434Z,18.27
2019-03-31T10:06:46.641Z,19.50
2019-03-31T10:09:14.863Z,16.70
2019-03-31T10:11:43.819Z,16.13
2019-03-31T10:14:12.007Z,17.30
2019-03-31T10:16:40.153Z,23.93
2019-03-31T10:19:08.334Z,16.62
2019-03-31T10:21:36.550Z,18.50
2019-03-31T10:24:04.771Z,18.17
2019-03-31T10:26:32.912Z,19.05
2019-03-31T10:29:01.025Z,20.30
2019-03-31T10:31:29.151Z,21.90
2019-03-31T10:33:57.292Z,22.03
2019-03-31T10:36:25.469Z,22.93
2019-03-31T10:38:53.671Z,19.53
2019-03-31T10:41:22.561Z,20.80
2019-03-31T10:43:50.679Z,20.37
2019-03-31T10:46:18.814Z,21.03
2019-03-31T10:48:47.767Z,19.20
2019-03-31T10:51:15.934Z,15.50
2019-03-31T10:53:44.120Z,16.00
2019-03-31T10:56:12.302Z,17.37
2019-03-31T10:58:40.437Z,40.90
2019-03-31T11:01:08.620Z,17.17
2019-03-31T11:03:36.812Z,20.77
2019-03-31T11:06:05.033Z,21.57
2019-03-31T11:08:33.250Z,22.97
2019-03-31T11:11:01.389Z,23.70
2019-03-31T11:13:29.549Z,25.87
2019-03-31T11:15:57.732Z,16.13
2019-03-31T11:18:25.907Z,17.33
2019-03-31T11:20:54.026Z,16.70
2019-03-31T11:23:24.096Z,16.80
2019-03-31T11:25:52.334Z,17.47
2019-03-31T11:28:20.516Z,18.93
2019-03-31T11:30:48.736Z,17.27
2019-03-31T11:33:16.851Z,15.70
2019-03-31T11:35:44.992Z,18.23
2019-03-31T11:38:13.253Z,16.97
2019-03-31T11:40:42.132Z,15.77
2019-03-31T11:43:10.256Z,21.50
2019-03-31T11:45:38.442Z,17.43
2019-03-31T11:48:06.638Z,18.27
2019-03-31T11:50:34.771Z,15.37
2019-03-31T11:53:02.916Z,16.10
2019-03-31T11:55:31.067Z,14.20
2019-03-31T11:57:59.291Z,15.27
2019-03-31T12:00:29.226Z,15.28
2019-03-31T12:02:57.421Z,15.72
2019-03-31T12:05:25.626Z,16.17
2019-03-31T12:07:53.836Z,18.02
2019-03-31T12:10:22.232Z,16.53
2019-03-31T12:12:50.410Z,14.28
2019-03-31T12:15:18.536Z,13.78
2019-03-31T12:17:46.670Z,12.15
2019-03-31T12:20:15.254Z,13.70
2019-03-31T12:22:43.391Z,14.07
2019-03-31T12:25:11.588Z,13.07
2019-03-31T12:27:39.728Z,13.05
2019-03-31T12:30:08.136Z,12.20
2019-03-31T12:32:38.529Z,13.35
2019-03-31T12:35:07.550Z,12.20
2019-03-31T12:37:42.214Z,11.40
2019-03-31T12:40:19.479Z,11.85
2019-03-31T12:42:47.689Z,11.57
2019-03-31T12:45:15.867Z,12.05
2019-03-31T12:47:44.031Z,12.05
2019-03-31T12:50:12.281Z,13.18
2019-03-31T12:52:46.519Z,11.15
2019-03-31T12:55:10.349Z,10.27
2019-03-31T12:57:38.524Z,14.43
2019-03-31T13:00:07.040Z,11.00
2019-03-31T13:02:35.271Z,9.63
2019-03-31T13:05:04.926Z,9.48
2019-03-31T13:07:33.072Z,13.03
2019-03-31T13:10:03.940Z,10.00
2019-03-31T13:12:34.853Z,9.60
2019-03-31T13:15:02.059Z,10.45
2019-03-31T13:17:30.201Z,9.98
2019-03-31T13:19:58.352Z,9.85
2019-03-31T13:22:27.374Z,8.75
2019-03-31T13:24:55.825Z,9.60
2019-03-31T13:27:24.023Z,8.48
2019-03-31T13:29:52.157Z,7.80
2019-03-31T13:32:20.288Z,8.13
2019-03-31T13:34:48.440Z,9.77
2019-03-31T13:37:16.599Z,12.00
2019-03-31T13:39:44.796Z,11.33
2019-03-31T13:42:13.021Z,11.68
2019-03-31T13:44:41.155Z,10.05
2019-03-31T13:47:09.312Z,10.38
2019-03-31T13:49:37.443Z,12.75
2019-03-31T13:52:05.684Z,13.75
2019-03-31T13:54:33.884Z,14.03
2019-03-31T13:57:02.755Z,17.45
2019-03-31T13:59:31.636Z,15.88
2019-03-31T14:02:00.359Z,12.40
2019-03-31T14:04:28.975Z,9.20
2019-03-31T14:06:57.104Z,9.83
2019-03-31T14:09:25.281Z,11.38
2019-03-31T14:11:53.491Z,10.95
2019-03-31T14:14:21.784Z,12.28
2019-03-31T14:16:49.924Z,13.13
2019-03-31T14:19:18.042Z,13.65
2019-03-31T14:21:46.257Z,11.85
2019-03-31T14:24:14.403Z,8.80
2019-03-31T14:26:42.531Z,9.68
2019-03-31T14:29:10.647Z,10.50
2019-03-31T14:31:38.843Z,13.45
2019-03-31T14:34:09.435Z,10.60
2019-03-31T14:36:37.628Z,9.10
2019-03-31T14:39:07.025Z,9.48
2019-03-31T14:41:35.249Z,8.73
2019-03-31T14:44:03.559Z,8.45
2019-03-31T14:46:31.782Z,12.30
2019-03-31T14:48:59.917Z,10.55
2019-03-31T14:51:28.052Z,17.42
2019-03-31T14:53:56.182Z,11.80
2019-03-31T14:56:24.702Z,13.08
2019-03-31T14:58:53.600Z,11.48
2019-03-31T15:01:27.842Z,10.18
2019-03-31T15:03:55.964Z,15.63
2019-03-31T15:06:24.116Z,9.68
2019-03-31T15:08:54.500Z,9.10
2019-03-31T15:11:22.396Z,9.23
2019-03-31T15:13:50.718Z,8.70
2019-03-31T15:16:18.973Z,7.92
2019-03-31T15:18:47.180Z,8.30
2019-03-31T15:21:15.814Z,6.47
2019-03-31T15:24:03.313Z,7.57
2019-03-31T15:26:32.261Z,6.85
2019-03-31T15:29:03.216Z,6.53
2019-03-31T15:31:31.451Z,30.97
2019-03-31T15:33:59.578Z,7.83
2019-03-31T15:36:27.883Z,6.53
2019-03-31T15:39:08.311Z,6.30
2019-03-31T15:41:25.907Z,6.67
2019-03-31T15:43:54.160Z,6.97
2019-03-31T15:46:24.632Z,12.53
2019-03-31T15:48:52.253Z,8.50
2019-03-31T15:51:20.459Z,13.17
2019-03-31T15:53:48.582Z,9.20
2019-03-31T15:56:16.730Z,9.03
2019-03-31T15:58:44.868Z,7.17
2019-03-31T16:01:13.070Z,8.63
2019-03-31T16:03:41.263Z,7.33
2019-03-31T16:06:09.439Z,7.50
2019-03-31T16:08:37.610Z,5.93
2019-03-31T16:11:05.851Z,7.30
2019-03-31T16:13:33.973Z,14.50
2019-03-31T16:16:02.236Z,7.73
2019-03-31T16:18:30.440Z,6.85
2019-03-31T16:20:58.642Z,8.47
2019-03-31T16:23:26.819Z,6.20
2019-03-31T16:25:58.628Z,9.25
2019-03-31T16:28:26.781Z,5.60
2019-03-31T16:30:54.910Z,6.10
2019-03-31T16:33:23.145Z,7.23
2019-03-31T16:35:51.889Z,4.62
2019-03-31T16:38:20.048Z,4.40
2019-03-31T16:40:48.387Z,4.17
2019-03-31T16:43:16.513Z,5.65
2019-03-31T16:45:44.747Z,4.70
2019-03-31T16:48:13.306Z,4.67
2019-03-31T16:50:41.473Z,4.40
2019-03-31T16:53:09.745Z,4.00
2019-03-31T16:55:40.800Z,8.93
2019-03-31T16:58:09.662Z,5.47
2019-03-31T17:00:38.070Z,6.37
2019-03-31T17:03:06.262Z,4.13
2019-03-31T17:05:34.386Z,4.03
2019-03-31T17:08:02.659Z,17.35
2019-03-31T17:10:30.946Z,15.03
2019-03-31T17:12:59.051Z,6.20
2019-03-31T17:15:27.191Z,6.53
2019-03-31T17:17:55.400Z,4.03
2019-03-31T17:20:23.532Z,4.53
2019-03-31T17:22:51.666Z,4.23
2019-03-31T17:25:19.860Z,4.78
2019-03-31T17:27:48.042Z,5.97
2019-03-31T17:30:16.798Z,5.00
2019-03-31T17:32:44.992Z,6.50
2019-03-31T17:35:13.121Z,4.27
2019-03-31T17:37:41.516Z,4.47
2019-03-31T17:40:09.770Z,4.53
2019-03-31T17:42:37.972Z,3.33
2019-03-31T17:45:06.539Z,3.97
2019-03-31T17:47:41.846Z,3.87
2019-03-31T17:50:10.167Z,3.60
2019-03-31T17:52:38.374Z,3.72
2019-03-31T17:55:06.765Z,3.70
2019-03-31T17:57:34.895Z,9.93
2019-03-31T18:00:05.201Z,9.12
2019-03-31T18:02:33.363Z,4.73
2019-03-31T18:05:01.859Z,4.87
2019-03-31T18:07:30.043Z,10.63
2019-03-31T18:09:58.183Z,11.73
2019-03-31T18:12:26.424Z,4.58
2019-03-31T18:14:54.631Z,4.37
2019-03-31T18:17:22.755Z,3.73
2019-03-31T18:19:51.385Z,4.10
2019-03-31T18:22:19.492Z,4.40
2019-03-31T18:24:47.607Z,8.97
2019-03-31T18:27:15.776Z,9.50
2019-03-31T18:29:43.890Z,9.97
2019-03-31T18:32:12.025Z,5.53
2019-03-31T18:34:40.334Z,4.07
2019-03-31T18:37:08.528Z,4.20
2019-03-31T18:39:36.662Z,4.20
2019-03-31T18:42:04.871Z,7.57
2019-03-31T18:44:33.841Z,4.37
2019-03-31T18:47:02.044Z,7.03
2019-03-31T18:49:30.166Z,6.60
2019-03-31T18:51:58.301Z,4.17
2019-03-31T18:54:30.631Z,5.13
2019-03-31T18:57:06.080Z,30.40
2019-03-31T18:59:41.481Z,9.33
2019-03-31T19:02:11.286Z,5.50
2019-03-31T19:04:41.251Z,6.53
2019-03-31T19:07:19.005Z,4.12
2019-03-31T19:09:50.978Z,6.67
2019-03-31T19:12:35.068Z,5.75
2019-03-31T19:15:10.196Z,4.50
2019-03-31T19:17:49.536Z,4.30
2019-03-31T19:20:38.437Z,3.60
2019-03-31T19:23:20.342Z,4.22
2019-03-31T19:26:08.039Z,4.23
2019-03-31T19:28:41.151Z,3.75
2019-03-31T19:31:27.739Z,4.43
2019-03-31T19:34:13.964Z,3.30
2019-03-31T19:36:55.669Z,3.60
2019-03-31T19:39:34.135Z,3.70
2019-03-31T19:42:10.075Z,3.27
2019-03-31T19:44:45.467Z,3.03
2019-03-31T19:47:31.609Z,4.33
2019-03-31T19:50:18.079Z,8.47
2019-03-31T19:52:48.184Z,3.40
2019-03-31T19:55:30.115Z,3.42
2019-03-31T19:58:06.109Z,3.47
2019-03-31T20:00:39.010Z,5.47
2019-03-31T20:03:08.829Z,5.20
2019-03-31T20:05:44.334Z,4.67
2019-03-31T20:08:30.934Z,3.70
2019-03-31T20:11:00.875Z,2.77
2019-03-31T20:13:31.393Z,3.47
2019-03-31T20:16:19.208Z,3.03
2019-03-31T20:19:05.475Z,3.50
2019-03-31T20:21:38.423Z,3.00
2019-03-31T20:24:14.054Z,3.53
2019-03-31T20:26:52.195Z,3.30
2019-03-31T20:29:31.115Z,3.93
2019-03-31T20:32:03.770Z,11.53
2019-03-31T20:34:33.612Z,3.93
2019-03-31T20:37:19.782Z,7.27
2019-03-31T20:40:06.028Z,3.00
2019-03-31T20:42:52.281Z,4.03
2019-03-31T20:45:20.556Z,2.30
2019-03-31T20:47:48.766Z,3.90
2019-03-31T20:50:16.939Z,2.83
2019-03-31T20:52:45.171Z,4.10
2019-03-31T20:55:16.522Z,3.42
2019-03-31T20:57:43.943Z,3.83
2019-03-31T21:00:12.272Z,3.40
2019-03-31T21:02:40.470Z,3.80
2019-03-31T21:05:08.676Z,4.37
2019-03-31T21:07:36.837Z,4.60
2019-03-31T21:10:05.915Z,3.50
2019-03-31T21:12:34.874Z,2.83
2019-03-31T21:15:03.134Z,3.27
2019-03-31T21:17:31.324Z,3.93
2019-03-31T21:19:59.498Z,2.60
2019-03-31T21:22:27.678Z,3.27
2019-03-31T21:24:55.849Z,2.60
2019-03-31T21:27:24.042Z,3.33
2019-03-31T21:29:52.350Z,2.43
2019-03-31T21:32:20.587Z,2.50
2019-03-31T21:34:48.694Z,2.70
2019-03-31T21:37:16.844Z,1.80
2019-03-31T21:39:44.982Z,2.20
2019-03-31T21:42:13.152Z,2.37
2019-03-31T21:44:41.339Z,2.33
2019-03-31T21:47:10.239Z,3.57
2019-03-31T21:49:38.434Z,3.00
2019-03-31T21:52:06.644Z,3.37
2019-03-31T21:54:34.837Z,2.70
2019-03-31T21:57:02.963Z,3.27
2019-03-31T21:59:33.480Z,3.47
2019-03-31T22:02:00.995Z,3.87
2019-03-31T22:04:29.241Z,3.77
2019-03-31T22:06:57.354Z,3.10
2019-03-31T22:09:25.514Z,2.03
2019-03-31T22:11:53.685Z,2.20
2019-03-31T22:14:21.820Z,2.10
2019-03-31T22:16:50.499Z,1.80
2019-03-31T22:19:18.628Z,1.70
2019-03-31T22:21:46.742Z,1.63
2019-03-31T22:24:14.865Z,1.93
2019-03-31T22:26:42.981Z,2.07
2019-03-31T22:29:11.098Z,1.70
2019-03-31T22:31:39.231Z,1.73
2019-03-31T22:34:08.094Z,2.03
2019-03-31T22:36:36.218Z,1.60
2019-03-31T22:39:05.714Z,1.70
2019-03-31T22:41:33.830Z,2.23
2019-03-31T22:44:01.940Z,1.95
2019-03-31T22:46:30.071Z,1.83
2019-03-31T22:48:58.219Z,2.15
2019-03-31T22:51:26.481Z,1.90
2019-03-31T22:53:54.639Z,2.03
2019-03-31T22:56:22.777Z,2.25
2019-03-31T22:58:51.015Z,1.80
2019-03-31T23:01:19.231Z,1.72
2019-03-31T23:03:47.388Z,2.13
2019-03-31T23:06:15.571Z,1.63
2019-03-31T23:08:43.738Z,1.57
2019-03-31T23:11:11.868Z,7.67
2019-03-31T23:13:40.039Z,2.67
2019-03-31T23:16:08.176Z,1.67
2019-03-31T23:18:36.287Z,2.00
2019-03-31T23:21:04.447Z,2.00
2019-03-31T23:23:32.606Z,1.62
2019-03-31T23:26:00.714Z,2.30
2019-03-31T23:28:28.870Z,2.07
2019-03-31T23:31:03.410Z,2.27
2019-03-31T23:33:29.784Z,1.77
2019-03-31T23:35:58.564Z,1.47
2019-03-31T23:38:26.750Z,1.67
2019-03-31T23:40:54.861Z,2.50
2019-03-31T23:43:23.012Z,1.72
2019-03-31T23:45:51.128Z,1.63
2019-03-31T23:48:19.312Z,1.70
2019-03-31T23:50:47.475Z,1.57
2019-03-31T23:53:15.598Z,1.70
2019-03-31T23:55:43.716Z,2.63
2019-03-31T23:58:11.842Z,1.80
